Detall de PIREP

Printer-friendly versionPDF version

[2013/01/27 14:45:00]
Flight IATA:CT0001
Pilot Number:041
Company ICAO:CAT
Aircraft Type:A320/E
PAX:98
Departing Airport: LEVC
Destination Airport: LEDA
Alternate Airport:LEBL
Online: VATSIM
Route:DCT TATOS A34 SEROX H110 OSVAK DCT
Flight Level:F180
No Slew and time accel
No pause
Crash detect
Detect pilot in Cockpit between each 30 and 45 minutes
14:45 Zero fuel Weight: 134051 Lbs, Fuel Weight: 8600 Lbs
14:45 VATSIM:LEVC 271430Z 28012KT 9999 FEW030 18/06 Q1014 NOSIG
14:45 VATSIM:LEDA 271430Z VRB02KT 9999 FEW060 SCT080 09/03 Q1014
14:45 VOICE CATALONIAN
14:47 Parking Brakes off
14:57 Take-off
14:57 Take off Weight: 141666 Lbs
14:57 Wind: 273º @ 020 Knots Heading: 294º
14:57 POS N39º 29´ 32´´ W000º 29´ 22´´
14:57 Gear Up: 186 Knots
14:57 Flaps:3 at 186 Knots
14:57 Flaps:1 at 198 Knots
14:57 Flaps:3 at 200 Knots
14:57 Flaps:2 at 202 Knots
14:57 Flaps:1 at 208 Knots
14:57 Flaps:0 at 216 Knots
15:03 TOC
15:03 Fuel Weight: 5591 Lb
15:12 Wind:288º@028 Knots Heading: 012º Ground Speed: 378 Knots Altitude 18083 ft
15:13 TOD
15:13 Fuel Weight: 4212 Lb
15:26 Flaps:1 at 246 Knots
15:26 Flaps:2 at 223 Knots
15:26 Flaps:1 at 222 Knots
15:26 Flaps:3 at 221 Knots
15:26 Flaps:2 at 221 Knots
15:26 Flaps:1 at 220 Knots
15:26 Flaps:3 at 220 Knots
15:27 Wind:297º@003 Knots Heading: 263º Ground Speed: 217 Knots Altitude 2690 ft
15:27 Flaps:4 at 176 Knots
15:27 Gear Down: 173 Knots
15:28 Flaps:5 at 149 Knots
15:29 TouchDown:Rate -276 ft/min Speed: 129 Knots
15:29 Flaps:2 at 56 Knots
15:29 Flaps:0 at 47 Knots
15:29 VATSIM:LEDA 271500Z 24003KT 210V290 9999 FEW060 SCT080 09/04 Q1014
15:29 Land
15:29 Wind:069º@001 Knots
15:29 Heading: 297º
15:29 Flight Duration: 00:32
15:29 Landing Weight: 137013 Lbs
15:29 POS N41º 43´ 40´´ E000º 32´ 06´´
15:31 Parking brakes on
15:31 Block to Block Duration: 00:44
15:31 Final Fuel: 2731 Lbls
15:31 Spent Fuel: 5868 Lbls
15:31 Flight Length: 164 NM
15:31 TOD Land Length: 70 NM

Exportar CSV

Powered by Drupal - Modified by Danger4k